sensor_id;sensor_type;location;lat;lon;timestamp;P1;durP1;ratioP1;P2;durP2;ratioP2
67737;SDS011;54534;43.612;1.572;2022-09-01T00:01:44;13.07;;;5.37;;
67737;SDS011;54534;43.612;1.572;2022-09-01T00:04:13;10.40;;;5.53;;
67737;SDS011;54534;43.612;1.572;2022-09-01T00:06:41;9.10;;;5.20;;
67737;SDS011;54534;43.612;1.572;2022-09-01T00:09:08;12.17;;;5.57;;
67737;SDS011;54534;43.612;1.572;2022-09-01T00:11:36;8.15;;;4.82;;
67737;SDS011;54534;43.612;1.572;2022-09-01T00:14:03;10.47;;;4.90;;
67737;SDS011;54534;43.612;1.572;2022-09-01T00:16:31;10.90;;;5.27;;
67737;SDS011;54534;43.612;1.572;2022-09-01T00:18:57;12.63;;;5.70;;
67737;SDS011;54534;43.612;1.572;2022-09-01T00:21:30;10.27;;;5.20;;
67737;SDS011;54534;43.612;1.572;2022-09-01T00:23:59;7.77;;;4.80;;
67737;SDS011;54534;43.612;1.572;2022-09-01T00:26:26;7.57;;;4.40;;
67737;SDS011;54534;43.612;1.572;2022-09-01T00:28:52;10.93;;;5.47;;
67737;SDS011;54534;43.612;1.572;2022-09-01T00:31:17;8.93;;;4.83;;
67737;SDS011;54534;43.612;1.572;2022-09-01T00:33:44;7.20;;;4.73;;
67737;SDS011;54534;43.612;1.572;2022-09-01T00:36:10;9.77;;;4.53;;
67737;SDS011;54534;43.612;1.572;2022-09-01T00:38:36;9.33;;;5.00;;
67737;SDS011;54534;43.612;1.572;2022-09-01T00:41:02;10.57;;;5.20;;
67737;SDS011;54534;43.612;1.572;2022-09-01T00:46:14;10.83;;;4.83;;
67737;SDS011;54534;43.612;1.572;2022-09-01T00:48:52;7.50;;;4.80;;
67737;SDS011;54534;43.612;1.572;2022-09-01T00:51:21;9.17;;;4.63;;
67737;SDS011;54534;43.612;1.572;2022-09-01T00:53:47;11.33;;;4.87;;
67737;SDS011;54534;43.612;1.572;2022-09-01T00:56:13;8.87;;;4.47;;
67737;SDS011;54534;43.612;1.572;2022-09-01T00:58:39;10.50;;;4.67;;
67737;SDS011;54534;43.612;1.572;2022-09-01T01:01:06;10.93;;;4.97;;
67737;SDS011;54534;43.612;1.572;2022-09-01T01:03:33;9.23;;;5.17;;
67737;SDS011;54534;43.612;1.572;2022-09-01T01:06:00;9.53;;;5.37;;
67737;SDS011;54534;43.612;1.572;2022-09-01T01:08:30;8.40;;;4.37;;
67737;SDS011;54534;43.612;1.572;2022-09-01T01:11:04;7.90;;;4.77;;
67737;SDS011;54534;43.612;1.572;2022-09-01T01:13:32;7.63;;;5.10;;
67737;SDS011;54534;43.612;1.572;2022-09-01T01:16:13;10.03;;;4.73;;
67737;SDS011;54534;43.612;1.572;2022-09-01T01:18:39;9.43;;;4.93;;
67737;SDS011;54534;43.612;1.572;2022-09-01T01:21:06;9.10;;;4.70;;
67737;SDS011;54534;43.612;1.572;2022-09-01T01:24:00;13.73;;;5.17;;
67737;SDS011;54534;43.612;1.572;2022-09-01T01:26:33;9.60;;;5.17;;
67737;SDS011;54534;43.612;1.572;2022-09-01T01:28:58;8.67;;;4.70;;
67737;SDS011;54534;43.612;1.572;2022-09-01T01:31:26;9.47;;;5.53;;
67737;SDS011;54534;43.612;1.572;2022-09-01T01:33:52;13.73;;;5.63;;
67737;SDS011;54534;43.612;1.572;2022-09-01T01:38:56;11.30;;;5.03;;
67737;SDS011;54534;43.612;1.572;2022-09-01T01:41:26;12.60;;;5.30;;
67737;SDS011;54534;43.612;1.572;2022-09-01T01:43:51;11.57;;;5.50;;
67737;SDS011;54534;43.612;1.572;2022-09-01T01:46:17;9.73;;;4.93;;
67737;SDS011;54534;43.612;1.572;2022-09-01T01:48:43;10.70;;;5.03;;
67737;SDS011;54534;43.612;1.572;2022-09-01T01:51:11;8.00;;;4.70;;
67737;SDS011;54534;43.612;1.572;2022-09-01T01:53:37;12.13;;;5.60;;
67737;SDS011;54534;43.612;1.572;2022-09-01T01:56:03;11.63;;;5.60;;
67737;SDS011;54534;43.612;1.572;2022-09-01T01:58:30;9.57;;;4.37;;
67737;SDS011;54534;43.612;1.572;2022-09-01T02:00:57;8.87;;;4.87;;
67737;SDS011;54534;43.612;1.572;2022-09-01T02:03:25;11.73;;;5.33;;
67737;SDS011;54534;43.612;1.572;2022-09-01T02:05:53;10.80;;;4.97;;
67737;SDS011;54534;43.612;1.572;2022-09-01T02:08:20;10.43;;;5.17;;
67737;SDS011;54534;43.612;1.572;2022-09-01T02:10:52;11.40;;;5.30;;
67737;SDS011;54534;43.612;1.572;2022-09-01T02:13:20;10.50;;;5.38;;
67737;SDS011;54534;43.612;1.572;2022-09-01T02:15:55;14.03;;;5.10;;
67737;SDS011;54534;43.612;1.572;2022-09-01T02:18:23;8.43;;;4.90;;
67737;SDS011;54534;43.612;1.572;2022-09-01T02:20:55;10.97;;;5.83;;
67737;SDS011;54534;43.612;1.572;2022-09-01T02:23:23;10.17;;;5.33;;
67737;SDS011;54534;43.612;1.572;2022-09-01T02:25:53;9.70;;;5.00;;
67737;SDS011;54534;43.612;1.572;2022-09-01T02:28:22;10.37;;;5.60;;
67737;SDS011;54534;43.612;1.572;2022-09-01T02:30:49;6.77;;;4.63;;
67737;SDS011;54534;43.612;1.572;2022-09-01T02:33:16;12.50;;;4.97;;
67737;SDS011;54534;43.612;1.572;2022-09-01T02:36:05;10.73;;;5.20;;
67737;SDS011;54534;43.612;1.572;2022-09-01T02:38:31;14.40;;;5.13;;
67737;SDS011;54534;43.612;1.572;2022-09-01T02:40:57;11.20;;;5.13;;
67737;SDS011;54534;43.612;1.572;2022-09-01T02:43:25;11.47;;;5.40;;
67737;SDS011;54534;43.612;1.572;2022-09-01T02:45:57;11.97;;;5.23;;
67737;SDS011;54534;43.612;1.572;2022-09-01T02:48:25;10.20;;;4.90;;
67737;SDS011;54534;43.612;1.572;2022-09-01T02:50:57;8.10;;;5.30;;
67737;SDS011;54534;43.612;1.572;2022-09-01T02:53:26;11.90;;;5.32;;
67737;SDS011;54534;43.612;1.572;2022-09-01T02:55:52;9.80;;;5.40;;
67737;SDS011;54534;43.612;1.572;2022-09-01T02:58:17;11.23;;;5.60;;
67737;SDS011;54534;43.612;1.572;2022-09-01T03:00:44;8.13;;;5.13;;
67737;SDS011;54534;43.612;1.572;2022-09-01T03:03:10;12.23;;;5.30;;
67737;SDS011;54534;43.612;1.572;2022-09-01T03:05:41;7.20;;;4.70;;
67737;SDS011;54534;43.612;1.572;2022-09-01T03:08:08;9.60;;;5.10;;
67737;SDS011;54534;43.612;1.572;2022-09-01T03:10:37;10.70;;;5.30;;
67737;SDS011;54534;43.612;1.572;2022-09-01T03:13:07;7.53;;;4.95;;
67737;SDS011;54534;43.612;1.572;2022-09-01T03:15:39;13.07;;;4.90;;
67737;SDS011;54534;43.612;1.572;2022-09-01T03:18:05;12.77;;;5.40;;
67737;SDS011;54534;43.612;1.572;2022-09-01T03:20:32;9.63;;;4.90;;
67737;SDS011;54534;43.612;1.572;2022-09-01T03:23:00;9.43;;;5.20;;
67737;SDS011;54534;43.612;1.572;2022-09-01T03:25:27;8.43;;;5.17;;
67737;SDS011;54534;43.612;1.572;2022-09-01T03:27:54;11.27;;;4.90;;
67737;SDS011;54534;43.612;1.572;2022-09-01T03:30:26;11.07;;;5.43;;
67737;SDS011;54534;43.612;1.572;2022-09-01T03:32:55;9.50;;;5.27;;
67737;SDS011;54534;43.612;1.572;2022-09-01T03:35:21;8.93;;;4.97;;
67737;SDS011;54534;43.612;1.572;2022-09-01T03:37:47;10.13;;;4.90;;
67737;SDS011;54534;43.612;1.572;2022-09-01T03:40:12;10.13;;;5.03;;
67737;SDS011;54534;43.612;1.572;2022-09-01T03:42:38;7.83;;;5.10;;
67737;SDS011;54534;43.612;1.572;2022-09-01T03:45:04;14.00;;;5.23;;
67737;SDS011;54534;43.612;1.572;2022-09-01T03:47:34;6.97;;;4.80;;
67737;SDS011;54534;43.612;1.572;2022-09-01T03:50:05;8.33;;;5.53;;
67737;SDS011;54534;43.612;1.572;2022-09-01T03:52:36;10.73;;;5.30;;
67737;SDS011;54534;43.612;1.572;2022-09-01T03:55:05;10.75;;;4.97;;
67737;SDS011;54534;43.612;1.572;2022-09-01T03:57:31;13.47;;;5.23;;
67737;SDS011;54534;43.612;1.572;2022-09-01T03:59:58;12.23;;;4.63;;
67737;SDS011;54534;43.612;1.572;2022-09-01T04:02:24;11.73;;;4.87;;
67737;SDS011;54534;43.612;1.572;2022-09-01T04:04:53;10.20;;;5.63;;
67737;SDS011;54534;43.612;1.572;2022-09-01T04:07:19;10.47;;;4.80;;
67737;SDS011;54534;43.612;1.572;2022-09-01T04:09:44;9.60;;;5.00;;
67737;SDS011;54534;43.612;1.572;2022-09-01T04:12:10;10.03;;;4.77;;
67737;SDS011;54534;43.612;1.572;2022-09-01T04:14:39;6.93;;;5.03;;
67737;SDS011;54534;43.612;1.572;2022-09-01T04:17:05;8.60;;;4.80;;
67737;SDS011;54534;43.612;1.572;2022-09-01T04:19:49;13.23;;;5.53;;
67737;SDS011;54534;43.612;1.572;2022-09-01T04:22:14;8.63;;;4.60;;
67737;SDS011;54534;43.612;1.572;2022-09-01T04:24:41;14.90;;;5.83;;
67737;SDS011;54534;43.612;1.572;2022-09-01T04:27:09;8.97;;;5.13;;
67737;SDS011;54534;43.612;1.572;2022-09-01T04:29:35;11.17;;;5.27;;
67737;SDS011;54534;43.612;1.572;2022-09-01T04:32:05;7.60;;;4.83;;
67737;SDS011;54534;43.612;1.572;2022-09-01T04:34:34;8.43;;;4.80;;
67737;SDS011;54534;43.612;1.572;2022-09-01T04:37:12;9.03;;;5.47;;
67737;SDS011;54534;43.612;1.572;2022-09-01T04:39:42;12.33;;;5.23;;
67737;SDS011;54534;43.612;1.572;2022-09-01T04:42:13;8.30;;;5.20;;
67737;SDS011;54534;43.612;1.572;2022-09-01T04:44:40;10.33;;;4.77;;
67737;SDS011;54534;43.612;1.572;2022-09-01T04:47:08;10.60;;;4.60;;
67737;SDS011;54534;43.612;1.572;2022-09-01T04:49:35;7.97;;;4.93;;
67737;SDS011;54534;43.612;1.572;2022-09-01T04:52:02;7.90;;;4.67;;
67737;SDS011;54534;43.612;1.572;2022-09-01T04:54:28;7.73;;;5.33;;
67737;SDS011;54534;43.612;1.572;2022-09-01T04:56:56;9.13;;;4.87;;
67737;SDS011;54534;43.612;1.572;2022-09-01T04:59:22;8.30;;;5.13;;
67737;SDS011;54534;43.612;1.572;2022-09-01T05:01:48;13.83;;;5.77;;
67737;SDS011;54534;43.612;1.572;2022-09-01T05:06:48;14.67;;;5.47;;
67737;SDS011;54534;43.612;1.572;2022-09-01T05:09:19;10.60;;;4.87;;
67737;SDS011;54534;43.612;1.572;2022-09-01T05:11:45;11.57;;;5.17;;
67737;SDS011;54534;43.612;1.572;2022-09-01T05:14:12;17.03;;;5.77;;
67737;SDS011;54534;43.612;1.572;2022-09-01T05:16:38;13.20;;;4.90;;
67737;SDS011;54534;43.612;1.572;2022-09-01T05:19:05;11.80;;;4.87;;
67737;SDS011;54534;43.612;1.572;2022-09-01T05:21:38;9.53;;;5.53;;
67737;SDS011;54534;43.612;1.572;2022-09-01T05:24:12;12.93;;;5.43;;
67737;SDS011;54534;43.612;1.572;2022-09-01T05:26:39;10.90;;;5.63;;
67737;SDS011;54534;43.612;1.572;2022-09-01T05:29:07;10.67;;;5.00;;
67737;SDS011;54534;43.612;1.572;2022-09-01T05:31:42;15.23;;;5.40;;
67737;SDS011;54534;43.612;1.572;2022-09-01T05:34:09;11.20;;;5.10;;
67737;SDS011;54534;43.612;1.572;2022-09-01T05:36:37;10.97;;;5.00;;
67737;SDS011;54534;43.612;1.572;2022-09-01T05:39:06;8.73;;;4.93;;
67737;SDS011;54534;43.612;1.572;2022-09-01T05:41:35;11.10;;;5.22;;
67737;SDS011;54534;43.612;1.572;2022-09-01T05:44:01;12.37;;;5.20;;
67737;SDS011;54534;43.612;1.572;2022-09-01T05:46:31;12.87;;;5.40;;
67737;SDS011;54534;43.612;1.572;2022-09-01T05:48:56;10.67;;;5.67;;
67737;SDS011;54534;43.612;1.572;2022-09-01T05:51:23;8.87;;;5.20;;
67737;SDS011;54534;43.612;1.572;2022-09-01T05:53:52;9.32;;;5.30;;
67737;SDS011;54534;43.612;1.572;2022-09-01T05:56:23;12.43;;;5.30;;
67737;SDS011;54534;43.612;1.572;2022-09-01T05:58:50;9.33;;;5.80;;
67737;SDS011;54534;43.612;1.572;2022-09-01T06:01:17;11.13;;;5.40;;
67737;SDS011;54534;43.612;1.572;2022-09-01T06:03:52;9.97;;;6.43;;
67737;SDS011;54534;43.612;1.572;2022-09-01T06:06:24;11.90;;;5.53;;
67737;SDS011;54534;43.612;1.572;2022-09-01T06:08:54;10.17;;;5.57;;
67737;SDS011;54534;43.612;1.572;2022-09-01T06:11:23;12.67;;;5.93;;
67737;SDS011;54534;43.612;1.572;2022-09-01T06:13:50;10.57;;;5.27;;
67737;SDS011;54534;43.612;1.572;2022-09-01T06:18:46;9.30;;;5.70;;
67737;SDS011;54534;43.612;1.572;2022-09-01T06:21:11;10.40;;;5.37;;
67737;SDS011;54534;43.612;1.572;2022-09-01T06:23:42;12.10;;;5.03;;
67737;SDS011;54534;43.612;1.572;2022-09-01T06:26:15;11.23;;;5.37;;
67737;SDS011;54534;43.612;1.572;2022-09-01T06:28:45;10.93;;;5.50;;
67737;SDS011;54534;43.612;1.572;2022-09-01T06:31:12;8.50;;;4.40;;
67737;SDS011;54534;43.612;1.572;2022-09-01T06:33:39;7.43;;;4.80;;
67737;SDS011;54534;43.612;1.572;2022-09-01T06:36:06;7.67;;;5.17;;
67737;SDS011;54534;43.612;1.572;2022-09-01T06:38:33;9.90;;;4.83;;
67737;SDS011;54534;43.612;1.572;2022-09-01T06:41:02;12.57;;;4.97;;
67737;SDS011;54534;43.612;1.572;2022-09-01T06:43:37;8.73;;;4.73;;
67737;SDS011;54534;43.612;1.572;2022-09-01T06:46:05;9.82;;;4.82;;
67737;SDS011;54534;43.612;1.572;2022-09-01T06:48:32;7.93;;;4.67;;
67737;SDS011;54534;43.612;1.572;2022-09-01T06:50:58;8.23;;;4.80;;
67737;SDS011;54534;43.612;1.572;2022-09-01T06:53:27;6.68;;;4.35;;
67737;SDS011;54534;43.612;1.572;2022-09-01T06:55:55;8.20;;;4.80;;
67737;SDS011;54534;43.612;1.572;2022-09-01T06:58:21;6.03;;;4.27;;
67737;SDS011;54534;43.612;1.572;2022-09-01T07:00:46;7.43;;;4.60;;
67737;SDS011;54534;43.612;1.572;2022-09-01T07:03:13;9.33;;;4.43;;
67737;SDS011;54534;43.612;1.572;2022-09-01T07:05:40;7.53;;;4.40;;
67737;SDS011;54534;43.612;1.572;2022-09-01T07:08:07;5.60;;;4.27;;
67737;SDS011;54534;43.612;1.572;2022-09-01T07:10:42;6.80;;;4.57;;
67737;SDS011;54534;43.612;1.572;2022-09-01T07:13:11;7.30;;;4.67;;
67737;SDS011;54534;43.612;1.572;2022-09-01T07:15:47;9.03;;;4.00;;
67737;SDS011;54534;43.612;1.572;2022-09-01T07:18:17;8.93;;;4.87;;
67737;SDS011;54534;43.612;1.572;2022-09-01T07:20:45;8.13;;;5.10;;
67737;SDS011;54534;43.612;1.572;2022-09-01T07:23:12;6.07;;;4.83;;
67737;SDS011;54534;43.612;1.572;2022-09-01T07:25:41;6.50;;;4.43;;
67737;SDS011;54534;43.612;1.572;2022-09-01T07:28:08;5.17;;;4.20;;
67737;SDS011;54534;43.612;1.572;2022-09-01T07:30:39;6.97;;;4.30;;
67737;SDS011;54534;43.612;1.572;2022-09-01T07:33:10;6.13;;;3.87;;
67737;SDS011;54534;43.612;1.572;2022-09-01T07:35:37;7.10;;;4.63;;
67737;SDS011;54534;43.612;1.572;2022-09-01T07:38:04;7.13;;;4.13;;
67737;SDS011;54534;43.612;1.572;2022-09-01T07:40:34;6.93;;;4.10;;
67737;SDS011;54534;43.612;1.572;2022-09-01T07:43:03;6.05;;;4.03;;
67737;SDS011;54534;43.612;1.572;2022-09-01T07:45:32;5.70;;;4.00;;
67737;SDS011;54534;43.612;1.572;2022-09-01T07:48:01;5.20;;;4.10;;
67737;SDS011;54534;43.612;1.572;2022-09-01T07:50:27;6.30;;;3.80;;
67737;SDS011;54534;43.612;1.572;2022-09-01T07:52:54;5.27;;;3.90;;
67737;SDS011;54534;43.612;1.572;2022-09-01T07:55:19;4.97;;;4.17;;
67737;SDS011;54534;43.612;1.572;2022-09-01T07:57:45;6.63;;;4.23;;
67737;SDS011;54534;43.612;1.572;2022-09-01T08:00:13;6.60;;;3.60;;
67737;SDS011;54534;43.612;1.572;2022-09-01T08:02:40;5.03;;;4.10;;
67737;SDS011;54534;43.612;1.572;2022-09-01T08:05:08;6.70;;;4.07;;
67737;SDS011;54534;43.612;1.572;2022-09-01T08:07:37;4.85;;;3.97;;
67737;SDS011;54534;43.612;1.572;2022-09-01T08:10:04;4.33;;;3.93;;
67737;SDS011;54534;43.612;1.572;2022-09-01T08:12:30;4.20;;;3.53;;
67737;SDS011;54534;43.612;1.572;2022-09-01T08:14:56;5.57;;;3.57;;
67737;SDS011;54534;43.612;1.572;2022-09-01T08:17:21;4.47;;;4.07;;
67737;SDS011;54534;43.612;1.572;2022-09-01T08:19:47;5.37;;;3.63;;
67737;SDS011;54534;43.612;1.572;2022-09-01T08:22:13;5.47;;;4.73;;
67737;SDS011;54534;43.612;1.572;2022-09-01T08:24:39;5.60;;;3.90;;
67737;SDS011;54534;43.612;1.572;2022-09-01T08:27:05;5.70;;;3.83;;
67737;SDS011;54534;43.612;1.572;2022-09-01T08:29:30;4.70;;;4.13;;
67737;SDS011;54534;43.612;1.572;2022-09-01T08:31:55;3.57;;;3.23;;
67737;SDS011;54534;43.612;1.572;2022-09-01T08:34:23;3.83;;;3.43;;
67737;SDS011;54534;43.612;1.572;2022-09-01T08:36:49;4.17;;;3.33;;
67737;SDS011;54534;43.612;1.572;2022-09-01T08:39:14;3.67;;;3.13;;
67737;SDS011;54534;43.612;1.572;2022-09-01T08:41:44;4.70;;;3.80;;
67737;SDS011;54534;43.612;1.572;2022-09-01T08:47:17;5.50;;;3.77;;
67737;SDS011;54534;43.612;1.572;2022-09-01T08:49:43;6.90;;;4.07;;
67737;SDS011;54534;43.612;1.572;2022-09-01T08:55:13;4.13;;;3.73;;
67737;SDS011;54534;43.612;1.572;2022-09-01T08:57:41;5.30;;;3.50;;
67737;SDS011;54534;43.612;1.572;2022-09-01T09:00:10;5.68;;;3.60;;
67737;SDS011;54534;43.612;1.572;2022-09-01T09:06:10;3.90;;;3.33;;
67737;SDS011;54534;43.612;1.572;2022-09-01T09:16:45;4.03;;;3.00;;
67737;SDS011;54534;43.612;1.572;2022-09-01T09:22:00;4.83;;;3.67;;
67737;SDS011;54534;43.612;1.572;2022-09-01T09:24:38;4.37;;;3.53;;
67737;SDS011;54534;43.612;1.572;2022-09-01T09:27:25;4.67;;;3.27;;
67737;SDS011;54534;43.612;1.572;2022-09-01T09:29:54;3.63;;;3.33;;
67737;SDS011;54534;43.612;1.572;2022-09-01T09:35:36;3.57;;;3.20;;
67737;SDS011;54534;43.612;1.572;2022-09-01T09:40:36;4.83;;;3.57;;
67737;SDS011;54534;43.612;1.572;2022-09-01T09:43:02;3.67;;;3.27;;
67737;SDS011;54534;43.612;1.572;2022-09-01T09:45:36;5.45;;;3.50;;
67737;SDS011;54534;43.612;1.572;2022-09-01T09:48:24;3.80;;;3.40;;
67737;SDS011;54534;43.612;1.572;2022-09-01T09:50:55;4.03;;;3.63;;
67737;SDS011;54534;43.612;1.572;2022-09-01T09:55:57;3.97;;;3.63;;
67737;SDS011;54534;43.612;1.572;2022-09-01T09:58:35;3.80;;;3.50;;
67737;SDS011;54534;43.612;1.572;2022-09-01T10:01:11;3.60;;;3.07;;
67737;SDS011;54534;43.612;1.572;2022-09-01T10:03:50;5.07;;;3.50;;
67737;SDS011;54534;43.612;1.572;2022-09-01T10:06:36;3.83;;;3.17;;
67737;SDS011;54534;43.612;1.572;2022-09-01T10:09:06;3.93;;;3.27;;
67737;SDS011;54534;43.612;1.572;2022-09-01T10:11:39;3.97;;;3.60;;
67737;SDS011;54534;43.612;1.572;2022-09-01T10:17:06;4.32;;;3.30;;
67737;SDS011;54534;43.612;1.572;2022-09-01T10:19:37;3.47;;;2.70;;
67737;SDS011;54534;43.612;1.572;2022-09-01T10:22:07;3.77;;;3.37;;
67737;SDS011;54534;43.612;1.572;2022-09-01T10:24:35;3.63;;;3.30;;
67737;SDS011;54534;43.612;1.572;2022-09-01T10:27:15;3.67;;;3.37;;
67737;SDS011;54534;43.612;1.572;2022-09-01T10:30:06;4.73;;;3.70;;
67737;SDS011;54534;43.612;1.572;2022-09-01T10:32:49;3.00;;;2.80;;
67737;SDS011;54534;43.612;1.572;2022-09-01T10:35:20;3.10;;;2.83;;
67737;SDS011;54534;43.612;1.572;2022-09-01T10:37:52;3.50;;;3.20;;
67737;SDS011;54534;43.612;1.572;2022-09-01T10:42:48;3.10;;;2.90;;
67737;SDS011;54534;43.612;1.572;2022-09-01T10:45:33;3.27;;;2.93;;
67737;SDS011;54534;43.612;1.572;2022-09-01T10:50:53;3.90;;;3.03;;
67737;SDS011;54534;43.612;1.572;2022-09-01T10:53:45;3.37;;;3.03;;
67737;SDS011;54534;43.612;1.572;2022-09-01T10:59:23;3.43;;;3.00;;
67737;SDS011;54534;43.612;1.572;2022-09-01T11:19:57;3.37;;;3.07;;
67737;SDS011;54534;43.612;1.572;2022-09-01T11:25:05;3.40;;;2.90;;
67737;SDS011;54534;43.612;1.572;2022-09-01T11:30:15;3.40;;;3.10;;
67737;SDS011;54534;43.612;1.572;2022-09-01T11:36:10;7.17;;;3.70;;
67737;SDS011;54534;43.612;1.572;2022-09-01T11:41:21;3.30;;;3.00;;
67737;SDS011;54534;43.612;1.572;2022-09-01T11:43:48;3.50;;;3.20;;
67737;SDS011;54534;43.612;1.572;2022-09-01T11:46:26;4.53;;;2.93;;
67737;SDS011;54534;43.612;1.572;2022-09-01T11:48:54;3.25;;;2.95;;
67737;SDS011;54534;43.612;1.572;2022-09-01T11:51:22;2.93;;;2.73;;
67737;SDS011;54534;43.612;1.572;2022-09-01T11:53:47;3.30;;;3.03;;
67737;SDS011;54534;43.612;1.572;2022-09-01T11:58:43;4.13;;;3.10;;
67737;SDS011;54534;43.612;1.572;2022-09-01T12:01:12;4.37;;;2.83;;
67737;SDS011;54534;43.612;1.572;2022-09-01T12:03:55;3.40;;;3.10;;
67737;SDS011;54534;43.612;1.572;2022-09-01T12:06:23;3.00;;;2.67;;
67737;SDS011;54534;43.612;1.572;2022-09-01T12:09:01;3.35;;;3.03;;
67737;SDS011;54534;43.612;1.572;2022-09-01T12:11:32;3.17;;;2.87;;
67737;SDS011;54534;43.612;1.572;2022-09-01T12:14:01;2.90;;;2.70;;
67737;SDS011;54534;43.612;1.572;2022-09-01T12:16:31;3.50;;;3.20;;
67737;SDS011;54534;43.612;1.572;2022-09-01T12:19:00;2.83;;;2.63;;
67737;SDS011;54534;43.612;1.572;2022-09-01T12:26:47;3.17;;;2.73;;
67737;SDS011;54534;43.612;1.572;2022-09-01T12:29:14;3.73;;;3.20;;
67737;SDS011;54534;43.612;1.572;2022-09-01T12:31:42;3.33;;;2.77;;
67737;SDS011;54534;43.612;1.572;2022-09-01T12:37:06;4.60;;;3.53;;
67737;SDS011;54534;43.612;1.572;2022-09-01T12:39:37;4.07;;;2.80;;
67737;SDS011;54534;43.612;1.572;2022-09-01T12:42:06;3.70;;;3.30;;
67737;SDS011;54534;43.612;1.572;2022-09-01T12:44:57;3.80;;;3.10;;
67737;SDS011;54534;43.612;1.572;2022-09-01T12:55:19;3.10;;;2.80;;
67737;SDS011;54534;43.612;1.572;2022-09-01T12:57:49;5.10;;;3.10;;
67737;SDS011;54534;43.612;1.572;2022-09-01T13:02:49;3.43;;;3.13;;
67737;SDS011;54534;43.612;1.572;2022-09-01T13:05:36;3.00;;;2.80;;
67737;SDS011;54534;43.612;1.572;2022-09-01T13:08:07;2.97;;;2.73;;
67737;SDS011;54534;43.612;1.572;2022-09-01T13:10:35;5.07;;;3.23;;
67737;SDS011;54534;43.612;1.572;2022-09-01T13:13:04;3.38;;;3.08;;
67737;SDS011;54534;43.612;1.572;2022-09-01T13:15:30;3.60;;;3.30;;
67737;SDS011;54534;43.612;1.572;2022-09-01T13:17:56;3.37;;;3.07;;
67737;SDS011;54534;43.612;1.572;2022-09-01T13:20:21;3.63;;;2.70;;
67737;SDS011;54534;43.612;1.572;2022-09-01T13:22:47;3.70;;;2.70;;
67737;SDS011;54534;43.612;1.572;2022-09-01T13:25:14;2.90;;;2.70;;
67737;SDS011;54534;43.612;1.572;2022-09-01T13:27:41;3.80;;;3.13;;
67737;SDS011;54534;43.612;1.572;2022-09-01T13:30:08;5.73;;;3.10;;
67737;SDS011;54534;43.612;1.572;2022-09-01T13:32:35;3.33;;;3.03;;
67737;SDS011;54534;43.612;1.572;2022-09-01T13:35:00;4.13;;;2.93;;
67737;SDS011;54534;43.612;1.572;2022-09-01T13:37:26;4.30;;;3.10;;
67737;SDS011;54534;43.612;1.572;2022-09-01T13:39:51;4.77;;;3.13;;
67737;SDS011;54534;43.612;1.572;2022-09-01T13:42:17;4.30;;;3.37;;
67737;SDS011;54534;43.612;1.572;2022-09-01T13:44:43;3.97;;;2.87;;
67737;SDS011;54534;43.612;1.572;2022-09-01T13:47:09;3.17;;;2.73;;
67737;SDS011;54534;43.612;1.572;2022-09-01T13:49:34;3.43;;;3.13;;
67737;SDS011;54534;43.612;1.572;2022-09-01T13:52:00;3.07;;;2.60;;
67737;SDS011;54534;43.612;1.572;2022-09-01T13:54:25;3.13;;;2.83;;
67737;SDS011;54534;43.612;1.572;2022-09-01T13:56:51;3.50;;;3.00;;
67737;SDS011;54534;43.612;1.572;2022-09-01T13:59:16;3.43;;;3.13;;
67737;SDS011;54534;43.612;1.572;2022-09-01T14:01:41;3.73;;;2.60;;
67737;SDS011;54534;43.612;1.572;2022-09-01T14:04:07;3.30;;;3.00;;
67737;SDS011;54534;43.612;1.572;2022-09-01T14:06:38;5.10;;;2.73;;
67737;SDS011;54534;43.612;1.572;2022-09-01T14:09:04;3.40;;;3.10;;
67737;SDS011;54534;43.612;1.572;2022-09-01T14:11:30;3.27;;;2.67;;
67737;SDS011;54534;43.612;1.572;2022-09-01T14:13:55;3.10;;;2.83;;
67737;SDS011;54534;43.612;1.572;2022-09-01T14:16:21;4.30;;;3.13;;
67737;SDS011;54534;43.612;1.572;2022-09-01T14:18:46;3.93;;;3.00;;
67737;SDS011;54534;43.612;1.572;2022-09-01T14:21:12;3.33;;;2.93;;
67737;SDS011;54534;43.612;1.572;2022-09-01T14:23:40;3.00;;;2.70;;
67737;SDS011;54534;43.612;1.572;2022-09-01T14:26:08;3.37;;;2.90;;
67737;SDS011;54534;43.612;1.572;2022-09-01T14:28:35;3.00;;;2.70;;
67737;SDS011;54534;43.612;1.572;2022-09-01T14:31:01;3.30;;;3.00;;
67737;SDS011;54534;43.612;1.572;2022-09-01T14:33:33;2.90;;;2.67;;
67737;SDS011;54534;43.612;1.572;2022-09-01T14:35:59;3.03;;;2.50;;
67737;SDS011;54534;43.612;1.572;2022-09-01T14:38:24;3.00;;;2.70;;
67737;SDS011;54534;43.612;1.572;2022-09-01T14:40:50;3.07;;;2.77;;
67737;SDS011;54534;43.612;1.572;2022-09-01T14:43:16;2.97;;;2.67;;
67737;SDS011;54534;43.612;1.572;2022-09-01T14:45:42;4.17;;;2.60;;
67737;SDS011;54534;43.612;1.572;2022-09-01T14:48:11;3.22;;;2.97;;
67737;SDS011;54534;43.612;1.572;2022-09-01T14:50:43;3.57;;;2.67;;
67737;SDS011;54534;43.612;1.572;2022-09-01T14:53:10;3.40;;;2.87;;
67737;SDS011;54534;43.612;1.572;2022-09-01T14:55:36;3.27;;;2.30;;
67737;SDS011;54534;43.612;1.572;2022-09-01T14:58:01;2.87;;;2.67;;
67737;SDS011;54534;43.612;1.572;2022-09-01T15:00:27;3.73;;;2.70;;
67737;SDS011;54534;43.612;1.572;2022-09-01T15:02:54;2.90;;;2.57;;
67737;SDS011;54534;43.612;1.572;2022-09-01T15:05:20;3.43;;;2.50;;
67737;SDS011;54534;43.612;1.572;2022-09-01T15:07:46;3.57;;;2.63;;
67737;SDS011;54534;43.612;1.572;2022-09-01T15:10:13;3.53;;;3.00;;
67737;SDS011;54534;43.612;1.572;2022-09-01T15:12:39;3.83;;;2.57;;
67737;SDS011;54534;43.612;1.572;2022-09-01T15:15:06;2.87;;;2.53;;
67737;SDS011;54534;43.612;1.572;2022-09-01T15:17:32;3.00;;;2.50;;
67737;SDS011;54534;43.612;1.572;2022-09-01T15:19:59;2.77;;;2.57;;
67737;SDS011;54534;43.612;1.572;2022-09-01T15:22:45;4.63;;;2.70;;
67737;SDS011;54534;43.612;1.572;2022-09-01T15:25:11;3.23;;;2.40;;
67737;SDS011;54534;43.612;1.572;2022-09-01T15:27:37;3.60;;;2.80;;
67737;SDS011;54534;43.612;1.572;2022-09-01T15:30:03;3.37;;;2.70;;
67737;SDS011;54534;43.612;1.572;2022-09-01T15:32:33;3.20;;;2.90;;
67737;SDS011;54534;43.612;1.572;2022-09-01T15:34:58;2.93;;;2.67;;
67737;SDS011;54534;43.612;1.572;2022-09-01T15:37:24;3.30;;;3.00;;
67737;SDS011;54534;43.612;1.572;2022-09-01T15:39:49;2.87;;;2.67;;
67737;SDS011;54534;43.612;1.572;2022-09-01T15:42:15;3.37;;;2.63;;
67737;SDS011;54534;43.612;1.572;2022-09-01T15:44:40;2.67;;;2.47;;
67737;SDS011;54534;43.612;1.572;2022-09-01T15:47:07;2.83;;;2.50;;
67737;SDS011;54534;43.612;1.572;2022-09-01T15:49:32;2.50;;;2.30;;
67737;SDS011;54534;43.612;1.572;2022-09-01T15:51:58;4.00;;;3.00;;
67737;SDS011;54534;43.612;1.572;2022-09-01T15:54:23;2.90;;;2.60;;
67737;SDS011;54534;43.612;1.572;2022-09-01T15:56:49;2.53;;;2.20;;
67737;SDS011;54534;43.612;1.572;2022-09-01T15:59:14;3.37;;;2.60;;
67737;SDS011;54534;43.612;1.572;2022-09-01T16:01:41;2.80;;;2.40;;
67737;SDS011;54534;43.612;1.572;2022-09-01T16:04:09;3.00;;;2.70;;
67737;SDS011;54534;43.612;1.572;2022-09-01T16:06:37;2.63;;;2.43;;
67737;SDS011;54534;43.612;1.572;2022-09-01T16:09:04;2.87;;;2.60;;
67737;SDS011;54534;43.612;1.572;2022-09-01T16:11:30;3.27;;;2.50;;
67737;SDS011;54534;43.612;1.572;2022-09-01T16:13:56;3.07;;;2.77;;
67737;SDS011;54534;43.612;1.572;2022-09-01T16:19:11;2.80;;;2.50;;
67737;SDS011;54534;43.612;1.572;2022-09-01T16:22:10;3.17;;;2.73;;
67737;SDS011;54534;43.612;1.572;2022-09-01T16:24:45;2.50;;;2.30;;
67737;SDS011;54534;43.612;1.572;2022-09-01T16:27:26;2.70;;;2.50;;
67737;SDS011;54534;43.612;1.572;2022-09-01T16:29:58;2.97;;;2.50;;
67737;SDS011;54534;43.612;1.572;2022-09-01T16:32:26;4.03;;;2.57;;
67737;SDS011;54534;43.612;1.572;2022-09-01T16:34:52;3.50;;;2.40;;
67737;SDS011;54534;43.612;1.572;2022-09-01T16:37:27;3.40;;;2.60;;
67737;SDS011;54534;43.612;1.572;2022-09-01T16:45:43;2.77;;;2.40;;